createdAt,value
2022-10-18T00:00:32.436Z,1019.74
2022-10-18T00:01:32.427Z,1019.74
2022-10-18T00:02:32.512Z,1019.74
2022-10-18T00:03:32.510Z,1019.73
2022-10-18T00:04:32.400Z,1019.73
2022-10-18T00:05:32.396Z,1019.74
2022-10-18T00:06:32.373Z,1019.74
2022-10-18T00:07:32.872Z,1019.75
2022-10-18T00:08:32.362Z,1019.76
2022-10-18T00:09:32.351Z,1019.77
2022-10-18T00:10:32.333Z,1019.79
2022-10-18T00:11:32.336Z,1019.79
2022-10-18T00:12:32.370Z,1019.80
2022-10-18T00:13:32.318Z,1019.81
2022-10-18T00:14:32.287Z,1019.82
2022-10-18T00:15:32.361Z,1019.81
2022-10-18T00:16:32.275Z,1019.83
2022-10-18T00:17:32.627Z,1019.82
2022-10-18T00:18:32.265Z,1019.81
2022-10-18T00:19:32.242Z,1019.79
2022-10-18T00:20:32.229Z,1019.78
2022-10-18T00:21:32.256Z,1019.78
2022-10-18T00:22:32.447Z,1019.78
2022-10-18T00:23:32.316Z,1019.79
2022-10-18T00:24:32.191Z,1019.77
2022-10-18T00:25:32.206Z,1019.80
2022-10-18T00:26:32.173Z,1019.81
2022-10-18T00:27:32.175Z,1019.82
2022-10-18T00:28:32.192Z,1019.86
2022-10-18T00:29:32.138Z,1019.87
2022-10-18T00:30:32.122Z,1019.89
2022-10-18T00:31:32.115Z,1019.91
2022-10-18T00:32:32.441Z,1019.91
2022-10-18T00:33:32.110Z,1019.92
2022-10-18T00:34:32.081Z,1019.94
2022-10-18T00:35:32.079Z,1019.95
2022-10-18T00:36:32.059Z,1019.96
2022-10-18T00:37:32.063Z,1019.98
2022-10-18T00:38:32.060Z,1019.98
2022-10-18T00:39:32.035Z,1019.99
2022-10-18T00:40:32.024Z,1020.00
2022-10-18T00:41:32.018Z,1020.01
2022-10-18T00:42:32.287Z,1019.99
2022-10-18T00:43:32.002Z,1019.97
2022-10-18T00:44:31.981Z,1019.97
2022-10-18T00:45:31.971Z,1019.96
2022-10-18T00:46:31.968Z,1019.97
2022-10-18T00:47:31.954Z,1019.98
2022-10-18T00:48:31.943Z,1019.95
2022-10-18T00:49:31.929Z,1019.92
2022-10-18T00:50:31.922Z,1019.91
2022-10-18T00:51:31.909Z,1019.90
2022-10-18T00:52:32.131Z,1019.91
2022-10-18T00:53:31.900Z,1019.92
2022-10-18T00:54:31.872Z,1019.93
2022-10-18T00:55:31.892Z,1019.94
2022-10-18T00:56:31.859Z,1019.91
2022-10-18T00:57:31.851Z,1019.94
2022-10-18T00:58:31.854Z,1019.93
2022-10-18T00:59:31.827Z,1019.95
2022-10-18T01:00:31.811Z,1019.95
2022-10-18T01:01:31.840Z,1019.95
2022-10-18T01:02:32.122Z,1019.97
2022-10-18T01:03:31.813Z,1020.00
2022-10-18T01:04:31.767Z,1020.00
2022-10-18T01:05:31.767Z,1019.98
2022-10-18T01:06:31.746Z,1019.95
2022-10-18T01:07:32.033Z,1019.95
2022-10-18T01:08:31.822Z,1019.94
2022-10-18T01:09:31.730Z,1019.95
2022-10-18T01:10:31.712Z,1019.95
2022-10-18T01:11:31.704Z,1019.98
2022-10-18T01:12:31.685Z,1019.99
2022-10-18T01:13:31.847Z,1019.98
2022-10-18T01:14:31.663Z,1020.01
2022-10-18T01:15:31.700Z,1020.02
2022-10-18T01:16:31.643Z,1020.00
2022-10-18T01:17:31.953Z,1020.01
2022-10-18T01:18:31.624Z,1020.02
2022-10-18T01:19:31.625Z,1020.02
2022-10-18T01:20:31.603Z,1020.03
2022-10-18T01:21:31.660Z,1020.04
2022-10-18T01:22:31.591Z,1020.03
2022-10-18T01:23:31.579Z,1020.10
2022-10-18T01:24:31.567Z,1020.06
2022-10-18T01:25:31.561Z,1020.05
2022-10-18T01:26:31.539Z,1020.05
2022-10-18T01:27:31.784Z,1020.04
2022-10-18T01:28:31.597Z,1020.00
2022-10-18T01:29:31.514Z,1019.98
2022-10-18T01:30:31.512Z,1019.97
2022-10-18T01:31:31.495Z,1019.95
2022-10-18T01:32:31.699Z,1019.94
2022-10-18T01:33:31.481Z,1019.96
2022-10-18T01:34:31.461Z,1019.94
2022-10-18T01:35:31.462Z,1019.88
2022-10-18T01:36:31.444Z,1019.89
2022-10-18T01:37:31.914Z,1019.87
2022-10-18T01:38:31.428Z,1019.86
2022-10-18T01:39:31.423Z,1019.86
2022-10-18T01:40:31.401Z,1019.87
2022-10-18T01:41:31.387Z,1019.86
2022-10-18T01:42:31.388Z,1019.83
2022-10-18T01:43:31.374Z,1019.83
2022-10-18T01:44:31.360Z,1019.80
2022-10-18T01:45:31.345Z,1019.82
2022-10-18T01:46:31.336Z,1019.82
2022-10-18T01:47:31.561Z,1019.83
2022-10-18T01:48:31.317Z,1019.85
2022-10-18T01:49:31.316Z,1019.85
2022-10-18T01:50:31.297Z,1019.87
2022-10-18T01:51:31.284Z,1019.89
2022-10-18T01:52:31.643Z,1019.91
2022-10-18T01:53:31.268Z,1019.90
2022-10-18T01:54:31.255Z,1019.96
2022-10-18T01:55:31.253Z,1019.97
2022-10-18T01:56:31.230Z,1019.99
2022-10-18T01:57:31.248Z,1020.00
2022-10-18T01:58:31.208Z,1019.98
2022-10-18T01:59:31.210Z,1019.97
2022-10-18T02:00:31.202Z,1019.96
2022-10-18T02:01:31.197Z,1019.96
2022-10-18T02:02:31.330Z,1019.94
2022-10-18T02:03:31.161Z,1019.91
2022-10-18T02:04:31.158Z,1019.89
2022-10-18T02:05:31.148Z,1019.86
2022-10-18T02:06:31.132Z,1019.86
2022-10-18T02:07:31.140Z,1019.84
2022-10-18T02:08:31.128Z,1019.83
2022-10-18T02:09:31.101Z,1019.83
2022-10-18T02:10:31.085Z,1019.83
2022-10-18T02:11:31.083Z,1019.84
2022-10-18T02:12:31.376Z,1019.84
2022-10-18T02:13:31.062Z,1019.84
2022-10-18T02:14:31.050Z,1019.82
2022-10-18T02:15:31.057Z,1019.82
2022-10-18T02:16:31.024Z,1019.82
2022-10-18T02:17:31.030Z,1019.85
2022-10-18T02:18:31.005Z,1019.87
2022-10-18T02:19:31.044Z,1019.86
2022-10-18T02:20:30.990Z,1019.85
2022-10-18T02:21:31.563Z,1019.84
2022-10-18T02:22:31.201Z,1019.86
2022-10-18T02:23:30.955Z,1019.91
2022-10-18T02:24:30.948Z,1019.95
2022-10-18T02:25:30.939Z,1019.98
2022-10-18T02:26:30.918Z,1020.00
2022-10-18T02:27:30.925Z,1019.99
2022-10-18T02:28:30.899Z,1019.97
2022-10-18T02:29:30.890Z,1019.97
2022-10-18T02:30:30.885Z,1019.97
2022-10-18T02:31:30.875Z,1019.97
2022-10-18T02:32:31.210Z,1019.95
2022-10-18T02:33:30.857Z,1019.95
2022-10-18T02:34:30.834Z,1019.95
2022-10-18T02:35:30.828Z,1019.94
2022-10-18T02:36:30.833Z,1019.96
2022-10-18T02:37:30.815Z,1019.96
2022-10-18T02:38:30.808Z,1019.97
2022-10-18T02:39:30.789Z,1019.99
2022-10-18T02:40:30.775Z,1020.01
2022-10-18T02:41:30.778Z,1020.04
2022-10-18T02:42:31.125Z,1020.05
2022-10-18T02:43:30.763Z,1020.05
2022-10-18T02:44:30.731Z,1020.04
2022-10-18T02:45:30.729Z,1020.05
2022-10-18T02:46:30.713Z,1020.08
2022-10-18T02:47:31.005Z,1020.10
2022-10-18T02:48:30.707Z,1020.14
2022-10-18T02:49:30.693Z,1020.15
2022-10-18T02:50:30.690Z,1020.13
2022-10-18T02:51:30.672Z,1020.09
2022-10-18T02:52:30.676Z,1020.06
2022-10-18T02:53:30.650Z,1020.07
2022-10-18T02:54:30.627Z,1020.09
2022-10-18T02:55:30.628Z,1020.12
2022-10-18T02:56:30.614Z,1020.14
2022-10-18T02:57:30.896Z,1020.14
2022-10-18T02:58:30.602Z,1020.12
2022-10-18T02:59:30.579Z,1020.11
2022-10-18T03:00:30.568Z,1020.13
2022-10-18T03:01:30.593Z,1020.13
2022-10-18T03:02:30.570Z,1020.13
2022-10-18T03:03:30.531Z,1020.13
2022-10-18T03:04:30.538Z,1020.12
2022-10-18T03:05:30.523Z,1020.13
2022-10-18T03:06:30.505Z,1020.16
2022-10-18T03:07:30.820Z,1020.18
2022-10-18T03:08:30.485Z,1020.18
2022-10-18T03:09:30.473Z,1020.18
2022-10-18T03:10:30.469Z,1020.19
2022-10-18T03:11:30.461Z,1020.19
2022-10-18T03:12:30.467Z,1020.18
2022-10-18T03:14:30.422Z,1020.17
2022-10-18T03:15:30.406Z,1020.17
2022-10-18T03:16:30.400Z,1020.17
2022-10-18T03:17:30.760Z,1020.19
2022-10-18T03:18:30.392Z,1020.23
2022-10-18T03:19:30.367Z,1020.29
2022-10-18T03:20:30.363Z,1020.35
2022-10-18T03:21:30.345Z,1020.41
2022-10-18T03:22:30.367Z,1020.45
2022-10-18T03:23:30.329Z,1020.50
2022-10-18T03:24:30.325Z,1020.52
2022-10-18T03:25:30.310Z,1020.54
2022-10-18T03:26:30.302Z,1020.55
2022-10-18T03:27:30.629Z,1020.56
2022-10-18T03:28:30.303Z,1020.54
2022-10-18T03:29:30.267Z,1020.53
2022-10-18T03:30:30.267Z,1020.53
2022-10-18T03:32:30.468Z,1020.47
2022-10-18T03:33:30.229Z,1020.41
2022-10-18T03:34:30.223Z,1020.36
2022-10-18T03:35:30.201Z,1020.35
2022-10-18T03:36:30.196Z,1020.35
2022-10-18T03:37:30.189Z,1020.34
2022-10-18T03:38:30.176Z,1020.31
2022-10-18T03:39:30.168Z,1020.27
2022-10-18T03:41:30.145Z,1020.20
2022-10-18T03:42:30.460Z,1020.19
2022-10-18T03:43:30.119Z,1020.17
2022-10-18T03:44:30.122Z,1020.15
2022-10-18T03:45:31.427Z,1020.14
2022-10-18T03:46:30.094Z,1020.16
2022-10-18T03:47:30.246Z,1020.19
2022-10-18T03:48:30.077Z,1020.21
2022-10-18T03:49:30.071Z,1020.23
2022-10-18T03:50:30.064Z,1020.25
2022-10-18T03:51:30.053Z,1020.27
2022-10-18T03:52:30.391Z,1020.27
2022-10-18T03:53:30.017Z,1020.28
2022-10-18T03:54:30.009Z,1020.30
2022-10-18T03:55:29.995Z,1020.29
2022-10-18T03:56:29.996Z,1020.32
2022-10-18T03:57:30.026Z,1020.34
2022-10-18T03:58:30.044Z,1020.37
2022-10-18T03:59:29.957Z,1020.39
2022-10-18T04:00:29.945Z,1020.39
2022-10-18T04:01:29.962Z,1020.39
2022-10-18T04:02:30.168Z,1020.36
2022-10-18T04:03:29.916Z,1020.33
2022-10-18T04:04:29.926Z,1020.31
2022-10-18T04:05:29.901Z,1020.28
2022-10-18T04:06:29.889Z,1020.27
2022-10-18T04:07:29.916Z,1020.26
2022-10-18T04:08:29.862Z,1020.27
2022-10-18T04:09:29.855Z,1020.28
2022-10-18T04:10:29.854Z,1020.28
2022-10-18T04:11:29.828Z,1020.29
2022-10-18T04:12:30.228Z,1020.29
2022-10-18T04:13:29.807Z,1020.33
2022-10-18T04:14:29.803Z,1020.36
2022-10-18T04:15:29.797Z,1020.38
2022-10-18T04:16:29.853Z,1020.38
2022-10-18T04:17:29.932Z,1020.36
2022-10-18T04:18:29.757Z,1020.34
2022-10-18T04:19:29.746Z,1020.33
2022-10-18T04:20:29.750Z,1020.34
2022-10-18T04:21:29.737Z,1020.35
2022-10-18T04:22:29.739Z,1020.34
2022-10-18T04:23:30.352Z,1020.34
2022-10-18T04:24:29.704Z,1020.34
2022-10-18T04:25:29.743Z,1020.33
2022-10-18T04:26:29.686Z,1020.33
2022-10-18T04:27:29.916Z,1020.32
2022-10-18T04:28:29.745Z,1020.31
2022-10-18T04:29:29.650Z,1020.27
2022-10-18T04:30:29.634Z,1020.26
2022-10-18T04:31:29.620Z,1020.26
2022-10-18T04:32:29.625Z,1020.27
2022-10-18T04:33:29.603Z,1020.27
2022-10-18T04:34:29.661Z,1020.30
2022-10-18T04:35:29.576Z,1020.33
2022-10-18T04:36:29.571Z,1020.36
2022-10-18T04:37:29.936Z,1020.39
2022-10-18T04:38:29.554Z,1020.40
2022-10-18T04:39:29.544Z,1020.40
2022-10-18T04:40:29.538Z,1020.41
2022-10-18T04:41:30.227Z,1020.40
2022-10-18T04:42:29.521Z,1020.39
2022-10-18T04:43:29.498Z,1020.38
2022-10-18T04:44:29.493Z,1020.37
2022-10-18T04:45:29.485Z,1020.37
2022-10-18T04:46:29.472Z,1020.38
2022-10-18T04:47:29.744Z,1020.39
2022-10-18T04:48:29.449Z,1020.39
2022-10-18T04:49:29.433Z,1020.38
2022-10-18T04:50:29.427Z,1020.35
2022-10-18T04:51:29.414Z,1020.33
2022-10-18T04:52:29.416Z,1020.33
2022-10-18T04:53:29.411Z,1020.33
2022-10-18T04:54:29.387Z,1020.32
2022-10-18T04:55:29.378Z,1020.30
2022-10-18T04:56:29.367Z,1020.27
2022-10-18T04:57:29.572Z,1020.26
2022-10-18T04:58:29.375Z,1020.26
2022-10-18T04:59:29.396Z,1020.26
2022-10-18T05:00:29.428Z,1020.27
2022-10-18T05:01:29.481Z,1020.27
2022-10-18T05:02:29.684Z,1020.29
2022-10-18T05:03:29.321Z,1020.28
2022-10-18T05:04:29.348Z,1020.28
2022-10-18T05:05:43.492Z,1020.27
2022-10-18T05:06:29.276Z,1020.31
2022-10-18T05:07:29.270Z,1020.32
2022-10-18T05:08:29.256Z,1020.32
2022-10-18T05:09:29.223Z,1020.31
2022-10-18T05:10:29.220Z,1020.30
2022-10-18T05:11:29.155Z,1020.28
2022-10-18T05:12:29.440Z,1020.26
2022-10-18T05:13:29.187Z,1020.24
2022-10-18T05:14:29.186Z,1020.19
2022-10-18T05:15:29.168Z,1020.17
2022-10-18T05:16:29.113Z,1020.18
2022-10-18T05:17:29.105Z,1020.19
2022-10-18T05:18:29.083Z,1020.21
2022-10-18T05:19:29.084Z,1020.22
2022-10-18T05:20:29.062Z,1020.25
2022-10-18T05:21:29.046Z,1020.27
2022-10-18T05:22:29.294Z,1020.28
2022-10-18T05:23:29.082Z,1020.25
2022-10-18T05:24:29.071Z,1020.24
2022-10-18T05:25:29.022Z,1020.23
2022-10-18T05:26:29.000Z,1020.24
2022-10-18T05:27:29.004Z,1020.23
2022-10-18T05:28:44.342Z,1020.23
2022-10-18T05:29:28.969Z,1020.22
2022-10-18T05:30:28.964Z,1020.22
2022-10-18T05:31:28.969Z,1020.22
2022-10-18T05:32:29.075Z,1020.20
2022-10-18T05:33:28.924Z,1020.22
2022-10-18T05:34:28.926Z,1020.23
2022-10-18T05:35:28.903Z,1020.27
2022-10-18T05:36:28.893Z,1020.30
2022-10-18T05:37:28.902Z,1020.30
2022-10-18T05:38:28.940Z,1020.28
2022-10-18T05:39:28.861Z,1020.26
2022-10-18T05:40:28.862Z,1020.24
2022-10-18T05:41:28.838Z,1020.21
2022-10-18T05:42:28.889Z,1020.19
2022-10-18T05:43:28.819Z,1020.17
2022-10-18T05:44:28.809Z,1020.17
2022-10-18T05:45:28.808Z,1020.17
2022-10-18T05:46:28.808Z,1020.17
2022-10-18T05:47:28.850Z,1020.18
2022-10-18T05:48:28.774Z,1020.19
2022-10-18T05:49:28.755Z,1020.21
2022-10-18T05:50:28.796Z,1020.21
2022-10-18T05:51:28.743Z,1020.18
2022-10-18T05:52:28.750Z,1020.16
2022-10-18T05:53:37.237Z,1020.13
2022-10-18T05:54:28.725Z,1020.16
2022-10-18T05:55:28.761Z,1020.20
2022-10-18T05:56:28.769Z,1020.24
2022-10-18T05:57:28.703Z,1020.27
2022-10-18T05:58:28.676Z,1020.29
2022-10-18T05:59:28.656Z,1020.30
2022-10-18T06:00:28.655Z,1020.30
2022-10-18T06:01:28.633Z,1020.30
2022-10-18T06:02:28.704Z,1020.30
2022-10-18T06:03:28.615Z,1020.31
2022-10-18T06:04:28.609Z,1020.33
2022-10-18T06:05:28.654Z,1020.36
2022-10-18T06:06:28.584Z,1020.38
2022-10-18T06:07:28.744Z,1020.38
2022-10-18T06:08:28.567Z,1020.35
2022-10-18T06:09:28.549Z,1020.35
2022-10-18T06:10:28.548Z,1020.36
2022-10-18T06:11:28.535Z,1020.37
2022-10-18T06:12:28.548Z,1020.36
2022-10-18T06:13:31.110Z,1020.36
2022-10-18T06:14:28.509Z,1020.36
2022-10-18T06:15:28.515Z,1020.33
2022-10-18T06:16:32.210Z,1020.28
2022-10-18T06:17:31.689Z,1020.25
2022-10-18T06:18:28.473Z,1020.25
2022-10-18T06:19:28.453Z,1020.24
2022-10-18T06:20:28.446Z,1020.21
2022-10-18T06:21:28.445Z,1020.19
2022-10-18T06:22:28.428Z,1020.17
2022-10-18T06:23:28.407Z,1020.15
2022-10-18T06:24:28.399Z,1020.14
2022-10-18T06:25:28.437Z,1020.15
2022-10-18T06:26:28.400Z,1020.18
2022-10-18T06:27:28.384Z,1020.21
2022-10-18T06:28:28.395Z,1020.22
2022-10-18T06:29:28.344Z,1020.22
2022-10-18T06:30:28.337Z,1020.21
2022-10-18T06:31:28.365Z,1020.21
2022-10-18T06:32:28.321Z,1020.20
2022-10-18T06:33:28.302Z,1020.18
2022-10-18T06:34:28.294Z,1020.15
2022-10-18T06:35:28.285Z,1020.12
2022-10-18T06:36:28.324Z,1020.10
2022-10-18T06:37:28.317Z,1020.12
2022-10-18T06:38:28.265Z,1020.16
2022-10-18T06:39:28.243Z,1020.17
2022-10-18T06:40:28.235Z,1020.17
2022-10-18T06:41:28.236Z,1020.16
2022-10-18T06:42:28.214Z,1020.14
2022-10-18T06:43:28.197Z,1020.11
2022-10-18T06:44:28.189Z,1020.08
2022-10-18T06:45:28.186Z,1020.06
2022-10-18T06:46:28.189Z,1020.06
2022-10-18T06:47:28.165Z,1020.07
2022-10-18T06:48:28.149Z,1020.08
2022-10-18T06:49:28.133Z,1020.12
2022-10-18T06:50:28.132Z,1020.15
2022-10-18T06:51:28.134Z,1020.19
2022-10-18T06:52:28.109Z,1020.21
2022-10-18T06:53:28.105Z,1020.23
2022-10-18T06:54:28.085Z,1020.22
2022-10-18T06:55:28.069Z,1020.25
2022-10-18T06:56:28.083Z,1020.27
2022-10-18T06:57:28.063Z,1020.29
2022-10-18T06:58:28.048Z,1020.31
2022-10-18T06:59:31.130Z,1020.32
2022-10-18T07:00:28.027Z,1020.31
2022-10-18T07:01:28.072Z,1020.28
2022-10-18T07:02:28.108Z,1020.24
2022-10-18T07:03:28.000Z,1020.20
2022-10-18T07:04:27.993Z,1020.23
2022-10-18T07:05:27.993Z,1020.25
2022-10-18T07:06:27.974Z,1020.25
2022-10-18T07:07:27.962Z,1020.27
2022-10-18T07:08:27.961Z,1020.27
2022-10-18T07:09:27.927Z,1020.27
2022-10-18T07:10:27.928Z,1020.28
2022-10-18T07:11:27.915Z,1020.30
2022-10-18T07:12:27.905Z,1020.33
2022-10-18T07:13:32.453Z,1020.36
2022-10-18T07:14:29.182Z,1020.39
2022-10-18T07:15:27.911Z,1020.42
2022-10-18T07:16:27.870Z,1020.44
2022-10-18T07:17:27.839Z,1020.45
2022-10-18T07:18:27.848Z,1020.47
2022-10-18T07:19:27.844Z,1020.49
2022-10-18T07:20:27.816Z,1020.53
2022-10-18T07:21:27.822Z,1020.55
2022-10-18T07:22:30.268Z,1020.58
2022-10-18T07:23:27.782Z,1020.62
2022-10-18T07:24:27.809Z,1020.65
2022-10-18T07:25:29.876Z,1020.68
2022-10-18T07:26:27.766Z,1020.70
2022-10-18T07:27:27.771Z,1020.70
2022-10-18T07:28:27.777Z,1020.70
2022-10-18T07:29:27.721Z,1020.69
2022-10-18T07:30:27.708Z,1020.71
2022-10-18T07:31:27.731Z,1020.71
2022-10-18T07:32:27.693Z,1020.72
2022-10-18T07:33:27.683Z,1020.74
2022-10-18T07:34:27.708Z,1020.76
2022-10-18T07:35:27.706Z,1020.79
2022-10-18T07:36:27.654Z,1020.82
2022-10-18T07:37:29.394Z,1020.84
2022-10-18T07:38:27.626Z,1020.87
2022-10-18T07:39:27.620Z,1020.88
2022-10-18T07:40:27.601Z,1020.89
2022-10-18T07:41:27.602Z,1020.89
2022-10-18T07:42:27.578Z,1020.87
2022-10-18T07:43:27.580Z,1020.87
2022-10-18T07:44:27.558Z,1020.87
2022-10-18T07:45:27.644Z,1020.88
2022-10-18T07:46:27.549Z,1020.90
2022-10-18T07:47:30.049Z,1020.92
2022-10-18T07:48:27.534Z,1020.94
2022-10-18T07:49:27.527Z,1020.95
2022-10-18T07:50:27.498Z,1020.95
2022-10-18T07:51:27.502Z,1020.95
2022-10-18T07:52:27.506Z,1020.94
2022-10-18T07:53:27.482Z,1020.93
2022-10-18T07:54:27.469Z,1020.92
2022-10-18T07:55:27.463Z,1020.92
2022-10-18T07:56:27.471Z,1020.93
2022-10-18T07:57:27.432Z,1020.92
2022-10-18T07:58:27.439Z,1020.91
2022-10-18T07:59:27.407Z,1020.90
2022-10-18T08:00:27.414Z,1020.89
2022-10-18T08:01:27.510Z,1020.88
2022-10-18T08:02:27.372Z,1020.87
2022-10-18T08:03:27.383Z,1020.87
2022-10-18T08:04:27.362Z,1020.84
2022-10-18T08:05:27.404Z,1020.85
2022-10-18T08:06:27.344Z,1020.85
2022-10-18T08:07:27.329Z,1020.84
2022-10-18T08:08:27.314Z,1020.84
2022-10-18T08:09:27.302Z,1020.85
2022-10-18T08:10:27.291Z,1020.85
2022-10-18T08:11:27.286Z,1020.83
2022-10-18T08:12:27.270Z,1020.84
2022-10-18T08:13:27.267Z,1020.83
2022-10-18T08:14:27.293Z,1020.82
2022-10-18T08:15:27.242Z,1020.80
2022-10-18T08:16:27.321Z,1020.79
2022-10-18T08:17:27.214Z,1020.78
2022-10-18T08:18:27.213Z,1020.77
2022-10-18T08:19:27.335Z,1020.76
2022-10-18T08:20:30.979Z,1020.75
2022-10-18T08:21:27.201Z,1020.75
2022-10-18T08:22:27.163Z,1020.75
2022-10-18T08:23:27.156Z,1020.75
2022-10-18T08:24:27.259Z,1020.74
2022-10-18T08:25:27.167Z,1020.73
2022-10-18T08:26:27.153Z,1020.71
2022-10-18T08:27:27.113Z,1020.68
2022-10-18T08:28:27.165Z,1020.65
2022-10-18T08:29:31.501Z,1020.64
2022-10-18T08:30:27.080Z,1020.65
2022-10-18T08:31:27.089Z,1020.65
2022-10-18T08:32:27.068Z,1020.66
2022-10-18T08:33:27.051Z,1020.66
2022-10-18T08:34:27.211Z,1020.66
2022-10-18T08:35:27.060Z,1020.66
2022-10-18T08:36:27.019Z,1020.66
2022-10-18T08:37:27.073Z,1020.67
2022-10-18T08:38:26.995Z,1020.68
2022-10-18T08:39:26.989Z,1020.69
2022-10-18T08:40:26.982Z,1020.72
2022-10-18T08:41:26.978Z,1020.74
2022-10-18T08:42:26.962Z,1020.75
2022-10-18T08:43:27.001Z,1020.76
2022-10-18T08:44:26.945Z,1020.75
2022-10-18T08:45:37.736Z,1020.75
2022-10-18T08:46:26.923Z,1020.74
2022-10-18T08:47:26.912Z,1020.75
2022-10-18T08:48:26.901Z,1020.75
2022-10-18T08:49:26.896Z,1020.75
2022-10-18T08:50:26.896Z,1020.74
2022-10-18T08:51:26.865Z,1020.74
2022-10-18T08:52:26.874Z,1020.74
2022-10-18T08:53:26.849Z,1020.73
2022-10-18T08:54:26.842Z,1020.72
2022-10-18T08:55:26.837Z,1020.71
2022-10-18T08:56:26.807Z,1020.69
2022-10-18T08:57:26.803Z,1020.68
2022-10-18T08:58:26.827Z,1020.67
2022-10-18T08:59:26.796Z,1020.67
2022-10-18T09:00:26.792Z,1020.67
2022-10-18T09:01:26.766Z,1020.67
2022-10-18T09:02:26.775Z,1020.68
2022-10-18T09:03:26.797Z,1020.68
2022-10-18T09:04:26.738Z,1020.67
2022-10-18T09:05:26.739Z,1020.66
2022-10-18T09:06:26.709Z,1020.67
2022-10-18T09:07:26.698Z,1020.68
2022-10-18T09:08:26.691Z,1020.69
2022-10-18T09:09:26.674Z,1020.72
2022-10-18T09:10:26.692Z,1020.73
2022-10-18T09:11:26.700Z,1020.75
2022-10-18T09:12:26.649Z,1020.76
2022-10-18T09:13:26.635Z,1020.77
2022-10-18T09:14:26.625Z,1020.75
2022-10-18T09:15:26.626Z,1020.77
2022-10-18T09:16:26.595Z,1020.78
2022-10-18T09:17:26.592Z,1020.79
2022-10-18T09:18:26.588Z,1020.81
2022-10-18T09:19:26.578Z,1020.83
2022-10-18T09:20:26.565Z,1020.84
2022-10-18T09:21:26.563Z,1020.84
2022-10-18T09:22:26.534Z,1020.84
2022-10-18T09:23:26.532Z,1020.84
2022-10-18T09:24:26.517Z,1020.85
2022-10-18T09:25:26.516Z,1020.86
2022-10-18T09:26:26.496Z,1020.85
2022-10-18T09:27:26.484Z,1020.84
2022-10-18T09:28:26.502Z,1020.83
2022-10-18T09:29:26.481Z,1020.82
2022-10-18T09:30:26.480Z,1020.81
2022-10-18T09:31:26.448Z,1020.80
2022-10-18T09:32:26.427Z,1020.79
2022-10-18T09:33:26.430Z,1020.78
2022-10-18T09:34:26.419Z,1020.77
2022-10-18T09:35:26.414Z,1020.74
2022-10-18T09:36:26.393Z,1020.74
2022-10-18T09:37:26.385Z,1020.73
2022-10-18T09:38:26.413Z,1020.73
2022-10-18T09:39:26.368Z,1020.72
2022-10-18T09:40:26.353Z,1020.74
2022-10-18T09:41:26.340Z,1020.74
2022-10-18T09:42:26.338Z,1020.75
2022-10-18T09:43:26.319Z,1020.75
2022-10-18T09:44:26.303Z,1020.76
2022-10-18T09:45:26.315Z,1020.77
2022-10-18T09:46:26.288Z,1020.78
2022-10-18T09:47:26.341Z,1020.77
2022-10-18T09:48:26.271Z,1020.76
2022-10-18T09:49:26.257Z,1020.76
2022-10-18T09:50:26.257Z,1020.75
2022-10-18T09:51:26.242Z,1020.74
2022-10-18T09:52:26.225Z,1020.75
2022-10-18T09:53:26.212Z,1020.77
2022-10-18T09:54:26.207Z,1020.78
2022-10-18T09:55:26.206Z,1020.77
2022-10-18T09:56:26.178Z,1020.76
2022-10-18T09:57:26.182Z,1020.74
2022-10-18T09:58:26.165Z,1020.73
2022-10-18T09:59:26.153Z,1020.72
2022-10-18T10:00:26.156Z,1020.71
2022-10-18T10:01:26.132Z,1020.72
2022-10-18T10:02:26.148Z,1020.73
2022-10-18T10:03:26.109Z,1020.74
2022-10-18T10:04:26.103Z,1020.75
2022-10-18T10:05:26.111Z,1020.77
2022-10-18T10:06:26.075Z,1020.80
2022-10-18T10:07:27.681Z,1020.83
2022-10-18T10:08:26.057Z,1020.85
2022-10-18T10:09:26.053Z,1020.85
2022-10-18T10:10:26.061Z,1020.85
2022-10-18T10:11:26.033Z,1020.85
2022-10-18T10:12:26.017Z,1020.84
2022-10-18T10:13:26.012Z,1020.84
2022-10-18T10:14:26.128Z,1020.84
2022-10-18T10:15:28.229Z,1020.84
2022-10-18T10:16:25.984Z,1020.82
2022-10-18T10:17:25.975Z,1020.80
2022-10-18T10:18:25.949Z,1020.78
2022-10-18T10:19:25.966Z,1020.75
2022-10-18T10:20:25.931Z,1020.74
2022-10-18T10:21:25.931Z,1020.74
2022-10-18T10:22:25.909Z,1020.76
2022-10-18T10:23:25.902Z,1020.77
2022-10-18T10:24:28.879Z,1020.78
2022-10-18T10:25:25.890Z,1020.79
2022-10-18T10:26:25.875Z,1020.79
2022-10-18T10:27:25.861Z,1020.77
2022-10-18T10:28:25.900Z,1020.76
2022-10-18T10:29:43.626Z,1020.74
2022-10-18T10:30:25.832Z,1020.73
2022-10-18T10:31:25.820Z,1020.73
2022-10-18T10:33:25.797Z,1020.74
2022-10-18T10:34:25.810Z,1020.74
2022-10-18T10:35:41.460Z,1020.73
2022-10-18T10:36:25.766Z,1020.71
2022-10-18T10:37:25.752Z,1020.69
2022-10-18T10:38:25.826Z,1020.68
2022-10-18T10:39:25.752Z,1020.68
2022-10-18T10:40:28.541Z,1020.68
2022-10-18T10:41:25.769Z,1020.67
2022-10-18T10:42:25.711Z,1020.65
2022-10-18T10:43:36.991Z,1020.63
2022-10-18T10:44:25.744Z,1020.62
2022-10-18T10:45:25.682Z,1020.61
2022-10-18T10:46:25.663Z,1020.59
2022-10-18T10:47:25.746Z,1020.57
2022-10-18T10:48:28.747Z,1020.55
2022-10-18T10:49:39.614Z,1020.52
2022-10-18T10:50:25.693Z,1020.49
2022-10-18T10:51:25.617Z,1020.46
2022-10-18T10:52:28.011Z,1020.45
2022-10-18T10:53:25.587Z,1020.47
2022-10-18T10:54:25.583Z,1020.47
2022-10-18T10:55:35.000Z,1020.47
2022-10-18T10:56:25.557Z,1020.46
2022-10-18T10:57:25.545Z,1020.44
2022-10-18T10:58:25.544Z,1020.41
2022-10-18T10:59:25.543Z,1020.38
2022-10-18T11:00:25.510Z,1020.36
2022-10-18T11:01:25.505Z,1020.34
2022-10-18T11:02:25.493Z,1020.31
2022-10-18T11:03:29.852Z,1020.28
2022-10-18T11:04:25.499Z,1020.24
2022-10-18T11:05:25.466Z,1020.21
2022-10-18T11:06:25.449Z,1020.18
2022-10-18T11:07:25.448Z,1020.19
2022-10-18T11:08:25.430Z,1020.22
2022-10-18T11:09:25.421Z,1020.25
2022-10-18T11:10:25.413Z,1020.28
2022-10-18T11:11:25.398Z,1020.29
2022-10-18T11:12:25.383Z,1020.29
2022-10-18T11:13:25.378Z,1020.28
2022-10-18T11:14:26.659Z,1020.28
2022-10-18T11:15:25.402Z,1020.28
2022-10-18T11:16:25.337Z,1020.27
2022-10-18T11:17:25.334Z,1020.27
2022-10-18T11:18:25.319Z,1020.27
2022-10-18T11:19:27.769Z,1020.29
2022-10-18T11:20:25.314Z,1020.29
2022-10-18T11:21:25.304Z,1020.28
2022-10-18T11:22:25.285Z,1020.26
2022-10-18T11:23:25.276Z,1020.26
2022-10-18T11:24:25.268Z,1020.26
2022-10-18T11:25:25.293Z,1020.26
2022-10-18T11:26:25.251Z,1020.25
2022-10-18T11:27:25.244Z,1020.28
2022-10-18T11:28:25.254Z,1020.30
2022-10-18T11:29:25.225Z,1020.30
2022-10-18T11:30:25.197Z,1020.28
2022-10-18T11:31:25.201Z,1020.27
2022-10-18T11:32:25.182Z,1020.26
2022-10-18T11:33:38.267Z,1020.26
2022-10-18T11:34:25.184Z,1020.26
2022-10-18T11:35:25.155Z,1020.26
2022-10-18T11:36:25.140Z,1020.25
2022-10-18T11:37:31.323Z,1020.24
2022-10-18T11:38:25.131Z,1020.24
2022-10-18T11:39:25.122Z,1020.24
2022-10-18T11:40:25.100Z,1020.24
2022-10-18T11:41:25.083Z,1020.25
2022-10-18T11:42:25.076Z,1020.24
2022-10-18T11:43:30.391Z,1020.24
2022-10-18T11:44:25.082Z,1020.24
2022-10-18T11:45:25.141Z,1020.23
2022-10-18T11:46:25.037Z,1020.23
2022-10-18T11:47:25.019Z,1020.23
2022-10-18T11:48:25.013Z,1020.23
2022-10-18T11:49:25.019Z,1020.22
2022-10-18T11:50:24.999Z,1020.21
2022-10-18T11:51:34.108Z,1020.20
2022-10-18T11:52:24.976Z,1020.19
2022-10-18T11:53:24.955Z,1020.17
2022-10-18T11:54:24.972Z,1020.17
2022-10-18T11:55:27.717Z,1020.17
2022-10-18T11:56:24.933Z,1020.16
2022-10-18T11:57:24.928Z,1020.15
2022-10-18T11:58:24.911Z,1020.14
2022-10-18T11:59:24.916Z,1020.12
2022-10-18T12:00:24.961Z,1020.08
2022-10-18T12:01:27.750Z,1020.05
2022-10-18T12:02:24.935Z,1020.06
2022-10-18T12:03:24.853Z,1020.03
2022-10-18T12:04:24.858Z,1019.99
2022-10-18T12:05:25.099Z,1019.95
2022-10-18T12:06:24.842Z,1019.93
2022-10-18T12:07:28.984Z,1019.95
2022-10-18T12:08:24.815Z,1019.98
2022-10-18T12:09:24.806Z,1019.99